sensor_id;sensor_type;location;lat;lon;timestamp;temperature;humidity
3492;DHT22;1760;52.480;13.422;2024-01-25T00:02:17;8.90;99.90
3492;DHT22;1760;52.480;13.422;2024-01-25T00:04:44;8.90;99.90
3492;DHT22;1760;52.480;13.422;2024-01-25T00:07:14;8.90;99.90
3492;DHT22;1760;52.480;13.422;2024-01-25T00:09:41;8.90;99.90
3492;DHT22;1760;52.480;13.422;2024-01-25T00:12:08;8.90;99.90
3492;DHT22;1760;52.480;13.422;2024-01-25T00:14:36;8.90;99.90
3492;DHT22;1760;52.480;13.422;2024-01-25T00:17:03;8.90;99.90
3492;DHT22;1760;52.480;13.422;2024-01-25T00:19:30;8.80;99.90
3492;DHT22;1760;52.480;13.422;2024-01-25T00:21:57;8.80;99.90
3492;DHT22;1760;52.480;13.422;2024-01-25T00:24:25;8.80;99.90
3492;DHT22;1760;52.480;13.422;2024-01-25T00:26:52;8.80;99.90
3492;DHT22;1760;52.480;13.422;2024-01-25T00:29:19;8.80;99.90
3492;DHT22;1760;52.480;13.422;2024-01-25T00:31:47;8.80;99.90
3492;DHT22;1760;52.480;13.422;2024-01-25T00:34:15;8.80;99.90
3492;DHT22;1760;52.480;13.422;2024-01-25T00:43:22;8.80;99.90
3492;DHT22;1760;52.480;13.422;2024-01-25T00:45:50;8.80;99.90
3492;DHT22;1760;52.480;13.422;2024-01-25T00:48:19;8.80;99.90
3492;DHT22;1760;52.480;13.422;2024-01-25T00:50:46;8.80;99.90
3492;DHT22;1760;52.480;13.422;2024-01-25T00:53:14;8.80;99.90
3492;DHT22;1760;52.480;13.422;2024-01-25T00:55:44;8.80;99.90
3492;DHT22;1760;52.480;13.422;2024-01-25T00:58:11;8.80;99.90
3492;DHT22;1760;52.480;13.422;2024-01-25T01:00:39;8.80;99.90
3492;DHT22;1760;52.480;13.422;2024-01-25T01:03:06;8.80;99.90
3492;DHT22;1760;52.480;13.422;2024-01-25T01:05:35;8.80;99.90
3492;DHT22;1760;52.480;13.422;2024-01-25T01:08:03;8.80;99.90
3492;DHT22;1760;52.480;13.422;2024-01-25T01:10:30;8.70;99.90
3492;DHT22;1760;52.480;13.422;2024-01-25T01:12:57;8.80;99.90
3492;DHT22;1760;52.480;13.422;2024-01-25T01:15:24;8.80;99.90
3492;DHT22;1760;52.480;13.422;2024-01-25T01:17:54;8.80;99.90
3492;DHT22;1760;52.480;13.422;2024-01-25T01:20:21;8.70;99.90
3492;DHT22;1760;52.480;13.422;2024-01-25T01:22:49;8.70;99.90
3492;DHT22;1760;52.480;13.422;2024-01-25T01:25:16;8.70;99.90
3492;DHT22;1760;52.480;13.422;2024-01-25T01:27:45;8.70;99.90
3492;DHT22;1760;52.480;13.422;2024-01-25T01:30:12;8.70;99.90
3492;DHT22;1760;52.480;13.422;2024-01-25T01:32:38;8.70;99.90
3492;DHT22;1760;52.480;13.422;2024-01-25T01:35:06;8.70;99.90
3492;DHT22;1760;52.480;13.422;2024-01-25T01:37:33;8.70;99.90
3492;DHT22;1760;52.480;13.422;2024-01-25T01:40:01;8.70;99.90
3492;DHT22;1760;52.480;13.422;2024-01-25T01:42:28;8.70;99.90
3492;DHT22;1760;52.480;13.422;2024-01-25T01:44:55;8.70;99.90
3492;DHT22;1760;52.480;13.422;2024-01-25T01:47:22;8.70;99.90
3492;DHT22;1760;52.480;13.422;2024-01-25T01:49:49;8.70;99.90
3492;DHT22;1760;52.480;13.422;2024-01-25T01:52:16;8.70;99.90
3492;DHT22;1760;52.480;13.422;2024-01-25T01:54:45;8.70;99.90
3492;DHT22;1760;52.480;13.422;2024-01-25T01:57:16;8.70;99.90
3492;DHT22;1760;52.480;13.422;2024-01-25T01:59:43;8.60;99.90
3492;DHT22;1760;52.480;13.422;2024-01-25T02:02:11;8.60;99.90
3492;DHT22;1760;52.480;13.422;2024-01-25T02:04:38;8.60;99.90
3492;DHT22;1760;52.480;13.422;2024-01-25T02:07:05;8.60;99.90
3492;DHT22;1760;52.480;13.422;2024-01-25T02:09:32;8.60;99.90
3492;DHT22;1760;52.480;13.422;2024-01-25T02:12:00;8.60;99.90
3492;DHT22;1760;52.480;13.422;2024-01-25T02:14:32;8.60;99.90
3492;DHT22;1760;52.480;13.422;2024-01-25T02:16:58;8.60;99.90
3492;DHT22;1760;52.480;13.422;2024-01-25T02:19:25;8.60;99.90
3492;DHT22;1760;52.480;13.422;2024-01-25T02:21:54;8.60;99.90
3492;DHT22;1760;52.480;13.422;2024-01-25T02:24:23;8.60;99.90
3492;DHT22;1760;52.480;13.422;2024-01-25T02:26:50;8.60;99.90
3492;DHT22;1760;52.480;13.422;2024-01-25T02:29:17;8.60;99.90
3492;DHT22;1760;52.480;13.422;2024-01-25T02:31:45;8.50;99.90
3492;DHT22;1760;52.480;13.422;2024-01-25T02:34:11;8.60;99.90
3492;DHT22;1760;52.480;13.422;2024-01-25T02:36:38;8.50;99.90
3492;DHT22;1760;52.480;13.422;2024-01-25T02:39:08;8.50;99.90
3492;DHT22;1760;52.480;13.422;2024-01-25T02:41:36;8.50;99.90
3492;DHT22;1760;52.480;13.422;2024-01-25T02:44:04;8.50;99.90
3492;DHT22;1760;52.480;13.422;2024-01-25T02:46:31;8.50;99.90
3492;DHT22;1760;52.480;13.422;2024-01-25T02:48:59;8.50;99.90
3492;DHT22;1760;52.480;13.422;2024-01-25T02:51:25;8.50;99.90
3492;DHT22;1760;52.480;13.422;2024-01-25T02:53:52;8.40;99.90
3492;DHT22;1760;52.480;13.422;2024-01-25T02:56:19;8.40;99.90
3492;DHT22;1760;52.480;13.422;2024-01-25T02:58:49;8.40;99.90
3492;DHT22;1760;52.480;13.422;2024-01-25T03:01:15;8.40;99.90
3492;DHT22;1760;52.480;13.422;2024-01-25T03:03:44;8.40;99.90
3492;DHT22;1760;52.480;13.422;2024-01-25T03:06:10;8.40;99.90
3492;DHT22;1760;52.480;13.422;2024-01-25T03:08:37;8.50;99.90
3492;DHT22;1760;52.480;13.422;2024-01-25T03:11:04;8.50;99.90
3492;DHT22;1760;52.480;13.422;2024-01-25T03:13:31;8.50;99.90
3492;DHT22;1760;52.480;13.422;2024-01-25T03:16:01;8.50;99.90
3492;DHT22;1760;52.480;13.422;2024-01-25T03:18:28;8.50;99.90
3492;DHT22;1760;52.480;13.422;2024-01-25T03:20:59;8.40;99.90
3492;DHT22;1760;52.480;13.422;2024-01-25T03:23:26;8.40;99.90
3492;DHT22;1760;52.480;13.422;2024-01-25T03:25:55;8.40;99.90
3492;DHT22;1760;52.480;13.422;2024-01-25T03:28:22;8.40;99.90
3492;DHT22;1760;52.480;13.422;2024-01-25T03:30:53;8.40;99.90
3492;DHT22;1760;52.480;13.422;2024-01-25T03:33:21;8.40;99.90
3492;DHT22;1760;52.480;13.422;2024-01-25T03:35:48;8.40;99.90
3492;DHT22;1760;52.480;13.422;2024-01-25T03:38:15;8.40;99.90
3492;DHT22;1760;52.480;13.422;2024-01-25T03:40:42;8.30;99.90
3492;DHT22;1760;52.480;13.422;2024-01-25T03:43:09;8.30;99.90
3492;DHT22;1760;52.480;13.422;2024-01-25T03:45:36;8.30;99.90
3492;DHT22;1760;52.480;13.422;2024-01-25T03:48:03;8.30;99.90
3492;DHT22;1760;52.480;13.422;2024-01-25T03:50:31;8.30;99.90
3492;DHT22;1760;52.480;13.422;2024-01-25T03:53:02;8.30;99.90
3492;DHT22;1760;52.480;13.422;2024-01-25T03:55:29;8.30;99.90
3492;DHT22;1760;52.480;13.422;2024-01-25T03:57:58;8.30;99.90
3492;DHT22;1760;52.480;13.422;2024-01-25T04:00:25;8.30;99.90
3492;DHT22;1760;52.480;13.422;2024-01-25T04:02:51;8.40;99.90
3492;DHT22;1760;52.480;13.422;2024-01-25T04:05:18;8.30;99.90
3492;DHT22;1760;52.480;13.422;2024-01-25T04:07:47;8.20;99.90
3492;DHT22;1760;52.480;13.422;2024-01-25T04:10:14;8.20;99.90
3492;DHT22;1760;52.480;13.422;2024-01-25T04:12:40;8.30;99.90
3492;DHT22;1760;52.480;13.422;2024-01-25T04:15:08;8.30;99.90
3492;DHT22;1760;52.480;13.422;2024-01-25T04:17:35;8.20;99.90
3492;DHT22;1760;52.480;13.422;2024-01-25T04:20:02;8.20;99.90
3492;DHT22;1760;52.480;13.422;2024-01-25T04:22:29;8.20;99.90
3492;DHT22;1760;52.480;13.422;2024-01-25T04:24:57;8.20;99.90
3492;DHT22;1760;52.480;13.422;2024-01-25T04:27:24;8.20;99.90
3492;DHT22;1760;52.480;13.422;2024-01-25T04:29:54;8.30;99.90
3492;DHT22;1760;52.480;13.422;2024-01-25T04:32:23;8.20;99.90
3492;DHT22;1760;52.480;13.422;2024-01-25T04:34:50;8.20;99.90
3492;DHT22;1760;52.480;13.422;2024-01-25T04:37:17;8.30;99.90
3492;DHT22;1760;52.480;13.422;2024-01-25T04:39:44;8.20;99.90
3492;DHT22;1760;52.480;13.422;2024-01-25T04:42:12;8.20;99.90
3492;DHT22;1760;52.480;13.422;2024-01-25T04:44:42;8.20;99.90
3492;DHT22;1760;52.480;13.422;2024-01-25T04:47:09;8.20;99.90
3492;DHT22;1760;52.480;13.422;2024-01-25T04:49:39;8.20;99.90
3492;DHT22;1760;52.480;13.422;2024-01-25T04:52:06;8.20;99.90
3492;DHT22;1760;52.480;13.422;2024-01-25T04:54:33;8.20;99.90
3492;DHT22;1760;52.480;13.422;2024-01-25T04:57:00;8.20;99.90
3492;DHT22;1760;52.480;13.422;2024-01-25T04:59:33;8.20;99.90
3492;DHT22;1760;52.480;13.422;2024-01-25T05:02:02;8.20;99.90
3492;DHT22;1760;52.480;13.422;2024-01-25T05:04:29;8.20;99.90
3492;DHT22;1760;52.480;13.422;2024-01-25T05:06:57;8.30;99.90
3492;DHT22;1760;52.480;13.422;2024-01-25T05:09:24;8.30;99.90
3492;DHT22;1760;52.480;13.422;2024-01-25T05:11:51;8.30;99.90
3492;DHT22;1760;52.480;13.422;2024-01-25T05:14:17;8.30;99.90
3492;DHT22;1760;52.480;13.422;2024-01-25T05:16:46;8.20;99.90
3492;DHT22;1760;52.480;13.422;2024-01-25T05:19:14;8.20;99.90
3492;DHT22;1760;52.480;13.422;2024-01-25T05:21:42;8.20;99.90
3492;DHT22;1760;52.480;13.422;2024-01-25T05:24:12;8.30;99.90
3492;DHT22;1760;52.480;13.422;2024-01-25T05:26:38;8.20;99.90
3492;DHT22;1760;52.480;13.422;2024-01-25T05:29:05;8.20;99.90
3492;DHT22;1760;52.480;13.422;2024-01-25T05:31:33;8.30;99.90
3492;DHT22;1760;52.480;13.422;2024-01-25T05:34:01;8.30;99.90
3492;DHT22;1760;52.480;13.422;2024-01-25T05:36:28;8.30;99.90
3492;DHT22;1760;52.480;13.422;2024-01-25T05:38:57;8.30;99.90
3492;DHT22;1760;52.480;13.422;2024-01-25T05:41:24;8.20;99.90
3492;DHT22;1760;52.480;13.422;2024-01-25T05:43:50;8.30;99.90
3492;DHT22;1760;52.480;13.422;2024-01-25T05:46:17;8.30;99.90
3492;DHT22;1760;52.480;13.422;2024-01-25T05:48:44;8.30;99.90
3492;DHT22;1760;52.480;13.422;2024-01-25T05:51:12;8.30;99.90
3492;DHT22;1760;52.480;13.422;2024-01-25T05:53:40;8.30;99.90
3492;DHT22;1760;52.480;13.422;2024-01-25T05:56:07;8.30;99.90
3492;DHT22;1760;52.480;13.422;2024-01-25T05:58:36;8.30;99.90
3492;DHT22;1760;52.480;13.422;2024-01-25T06:01:04;8.20;99.90
3492;DHT22;1760;52.480;13.422;2024-01-25T06:03:31;8.30;99.90
3492;DHT22;1760;52.480;13.422;2024-01-25T06:05:59;8.30;99.90
3492;DHT22;1760;52.480;13.422;2024-01-25T06:08:27;8.20;99.90
3492;DHT22;1760;52.480;13.422;2024-01-25T06:10:54;8.20;99.90
3492;DHT22;1760;52.480;13.422;2024-01-25T06:13:21;8.10;99.90
3492;DHT22;1760;52.480;13.422;2024-01-25T06:15:48;8.10;99.90
3492;DHT22;1760;52.480;13.422;2024-01-25T06:18:19;8.20;99.90
3492;DHT22;1760;52.480;13.422;2024-01-25T06:20:46;8.10;99.90
3492;DHT22;1760;52.480;13.422;2024-01-25T06:23:15;8.10;99.90
3492;DHT22;1760;52.480;13.422;2024-01-25T06:25:48;8.10;99.90
3492;DHT22;1760;52.480;13.422;2024-01-25T06:28:15;8.20;99.90
3492;DHT22;1760;52.480;13.422;2024-01-25T06:30:42;8.10;99.90
3492;DHT22;1760;52.480;13.422;2024-01-25T06:33:09;8.10;99.90
3492;DHT22;1760;52.480;13.422;2024-01-25T06:35:35;8.20;99.90
3492;DHT22;1760;52.480;13.422;2024-01-25T06:38:03;8.20;99.90
3492;DHT22;1760;52.480;13.422;2024-01-25T06:40:32;8.20;99.90
3492;DHT22;1760;52.480;13.422;2024-01-25T06:43:00;8.20;99.90
3492;DHT22;1760;52.480;13.422;2024-01-25T06:45:27;8.20;99.90
3492;DHT22;1760;52.480;13.422;2024-01-25T06:47:54;8.20;99.90
3492;DHT22;1760;52.480;13.422;2024-01-25T06:50:23;8.20;99.90
3492;DHT22;1760;52.480;13.422;2024-01-25T06:52:50;8.20;99.90
3492;DHT22;1760;52.480;13.422;2024-01-25T06:55:19;8.20;99.90
3492;DHT22;1760;52.480;13.422;2024-01-25T06:57:50;8.20;99.90
3492;DHT22;1760;52.480;13.422;2024-01-25T07:00:18;8.20;99.90
3492;DHT22;1760;52.480;13.422;2024-01-25T07:02:46;8.20;99.90
3492;DHT22;1760;52.480;13.422;2024-01-25T07:05:13;8.20;99.90
3492;DHT22;1760;52.480;13.422;2024-01-25T07:07:41;8.20;99.90
3492;DHT22;1760;52.480;13.422;2024-01-25T07:10:08;8.30;99.90
3492;DHT22;1760;52.480;13.422;2024-01-25T07:12:38;8.30;99.90
3492;DHT22;1760;52.480;13.422;2024-01-25T07:15:05;8.30;99.90
3492;DHT22;1760;52.480;13.422;2024-01-25T07:17:33;8.30;99.90
3492;DHT22;1760;52.480;13.422;2024-01-25T07:20:00;8.30;99.90
3492;DHT22;1760;52.480;13.422;2024-01-25T07:22:28;8.30;99.90
3492;DHT22;1760;52.480;13.422;2024-01-25T07:24:55;8.40;99.90
3492;DHT22;1760;52.480;13.422;2024-01-25T07:27:21;8.50;99.90
3492;DHT22;1760;52.480;13.422;2024-01-25T07:29:48;8.50;99.90
3492;DHT22;1760;52.480;13.422;2024-01-25T07:32:18;8.50;99.90
3492;DHT22;1760;52.480;13.422;2024-01-25T07:34:51;8.50;99.90
3492;DHT22;1760;52.480;13.422;2024-01-25T07:37:20;8.50;99.90
3492;DHT22;1760;52.480;13.422;2024-01-25T07:39:46;8.40;99.90
3492;DHT22;1760;52.480;13.422;2024-01-25T07:42:13;8.40;99.90
3492;DHT22;1760;52.480;13.422;2024-01-25T07:44:40;8.40;99.90
3492;DHT22;1760;52.480;13.422;2024-01-25T07:47:07;8.40;99.90
3492;DHT22;1760;52.480;13.422;2024-01-25T07:49:34;8.40;99.90
3492;DHT22;1760;52.480;13.422;2024-01-25T07:52:04;8.40;99.90
3492;DHT22;1760;52.480;13.422;2024-01-25T07:54:31;8.40;99.90
3492;DHT22;1760;52.480;13.422;2024-01-25T07:56:58;8.30;99.90
3492;DHT22;1760;52.480;13.422;2024-01-25T07:59:25;8.20;99.90
3492;DHT22;1760;52.480;13.422;2024-01-25T08:01:52;8.30;99.90
3492;DHT22;1760;52.480;13.422;2024-01-25T08:04:20;8.20;99.90
3492;DHT22;1760;52.480;13.422;2024-01-25T08:06:47;8.20;99.90
3492;DHT22;1760;52.480;13.422;2024-01-25T08:09:18;8.20;99.90
3492;DHT22;1760;52.480;13.422;2024-01-25T08:14:39;8.20;99.90
3492;DHT22;1760;52.480;13.422;2024-01-25T08:17:17;8.20;99.90
3492;DHT22;1760;52.480;13.422;2024-01-25T08:19:45;8.20;99.90
3492;DHT22;1760;52.480;13.422;2024-01-25T08:22:16;8.20;99.90
3492;DHT22;1760;52.480;13.422;2024-01-25T08:24:44;8.30;99.90
3492;DHT22;1760;52.480;13.422;2024-01-25T08:27:16;8.30;99.90
3492;DHT22;1760;52.480;13.422;2024-01-25T08:29:50;8.30;99.90
3492;DHT22;1760;52.480;13.422;2024-01-25T08:32:17;8.20;99.90
3492;DHT22;1760;52.480;13.422;2024-01-25T08:34:45;8.20;99.90
3492;DHT22;1760;52.480;13.422;2024-01-25T08:37:12;8.20;99.90
3492;DHT22;1760;52.480;13.422;2024-01-25T08:39:46;8.20;99.90
3492;DHT22;1760;52.480;13.422;2024-01-25T08:42:16;8.20;99.90
3492;DHT22;1760;52.480;13.422;2024-01-25T08:44:46;8.20;99.90
3492;DHT22;1760;52.480;13.422;2024-01-25T08:47:15;8.30;99.90
3492;DHT22;1760;52.480;13.422;2024-01-25T08:49:50;8.30;99.90
3492;DHT22;1760;52.480;13.422;2024-01-25T08:52:39;8.40;99.90
3492;DHT22;1760;52.480;13.422;2024-01-25T08:55:09;8.40;99.90
3492;DHT22;1760;52.480;13.422;2024-01-25T09:00:12;8.40;99.90
3492;DHT22;1760;52.480;13.422;2024-01-25T09:02:39;8.40;99.90
3492;DHT22;1760;52.480;13.422;2024-01-25T09:05:10;8.40;99.90
3492;DHT22;1760;52.480;13.422;2024-01-25T09:07:37;8.40;99.90
3492;DHT22;1760;52.480;13.422;2024-01-25T09:10:05;8.40;99.90
3492;DHT22;1760;52.480;13.422;2024-01-25T09:12:37;8.40;99.90
3492;DHT22;1760;52.480;13.422;2024-01-25T09:15:05;8.50;99.90
3492;DHT22;1760;52.480;13.422;2024-01-25T09:17:34;8.50;99.90
3492;DHT22;1760;52.480;13.422;2024-01-25T09:20:00;8.40;99.90
3492;DHT22;1760;52.480;13.422;2024-01-25T09:22:28;8.40;99.90
3492;DHT22;1760;52.480;13.422;2024-01-25T09:24:55;8.40;99.90
3492;DHT22;1760;52.480;13.422;2024-01-25T09:27:22;8.50;99.90
3492;DHT22;1760;52.480;13.422;2024-01-25T09:29:50;8.50;99.90
3492;DHT22;1760;52.480;13.422;2024-01-25T09:32:17;8.40;99.90
3492;DHT22;1760;52.480;13.422;2024-01-25T09:34:46;8.40;99.90
3492;DHT22;1760;52.480;13.422;2024-01-25T09:37:13;8.50;99.90
3492;DHT22;1760;52.480;13.422;2024-01-25T09:39:41;8.50;99.90
3492;DHT22;1760;52.480;13.422;2024-01-25T09:42:08;8.50;99.90
3492;DHT22;1760;52.480;13.422;2024-01-25T09:44:38;8.50;99.90
3492;DHT22;1760;52.480;13.422;2024-01-25T09:47:08;8.40;99.90
3492;DHT22;1760;52.480;13.422;2024-01-25T09:49:35;8.40;99.90
3492;DHT22;1760;52.480;13.422;2024-01-25T09:52:04;8.40;99.90
3492;DHT22;1760;52.480;13.422;2024-01-25T09:54:33;8.40;99.90
3492;DHT22;1760;52.480;13.422;2024-01-25T09:57:05;8.30;99.90
3492;DHT22;1760;52.480;13.422;2024-01-25T09:59:32;8.40;99.90
3492;DHT22;1760;52.480;13.422;2024-01-25T10:02:01;8.40;99.90
3492;DHT22;1760;52.480;13.422;2024-01-25T10:04:30;8.40;99.90
3492;DHT22;1760;52.480;13.422;2024-01-25T10:07:00;8.40;99.90
3492;DHT22;1760;52.480;13.422;2024-01-25T10:09:27;8.40;99.90
3492;DHT22;1760;52.480;13.422;2024-01-25T10:11:56;8.40;99.90
3492;DHT22;1760;52.480;13.422;2024-01-25T10:14:24;8.50;99.90
3492;DHT22;1760;52.480;13.422;2024-01-25T10:16:51;8.50;99.90
3492;DHT22;1760;52.480;13.422;2024-01-25T10:19:20;8.50;99.90
3492;DHT22;1760;52.480;13.422;2024-01-25T10:21:50;8.60;99.90
3492;DHT22;1760;52.480;13.422;2024-01-25T10:24:17;8.60;99.90
3492;DHT22;1760;52.480;13.422;2024-01-25T10:26:48;8.60;99.90
3492;DHT22;1760;52.480;13.422;2024-01-25T10:29:16;8.60;99.90
3492;DHT22;1760;52.480;13.422;2024-01-25T10:31:43;8.60;99.90
3492;DHT22;1760;52.480;13.422;2024-01-25T10:34:13;8.70;99.90
3492;DHT22;1760;52.480;13.422;2024-01-25T10:36:40;8.70;99.90
3492;DHT22;1760;52.480;13.422;2024-01-25T10:39:09;8.70;99.90
3492;DHT22;1760;52.480;13.422;2024-01-25T10:41:36;8.70;99.90
3492;DHT22;1760;52.480;13.422;2024-01-25T10:44:04;8.90;99.90
3492;DHT22;1760;52.480;13.422;2024-01-25T10:46:32;9.00;99.90
3492;DHT22;1760;52.480;13.422;2024-01-25T10:49:00;9.00;99.90
3492;DHT22;1760;52.480;13.422;2024-01-25T10:51:29;9.00;99.90
3492;DHT22;1760;52.480;13.422;2024-01-25T10:53:57;8.90;99.90
3492;DHT22;1760;52.480;13.422;2024-01-25T10:56:26;8.90;99.90
3492;DHT22;1760;52.480;13.422;2024-01-25T10:58:53;8.90;99.90
3492;DHT22;1760;52.480;13.422;2024-01-25T11:01:23;8.90;99.90
3492;DHT22;1760;52.480;13.422;2024-01-25T11:03:50;8.80;99.90
3492;DHT22;1760;52.480;13.422;2024-01-25T11:06:17;8.90;99.90
3492;DHT22;1760;52.480;13.422;2024-01-25T11:08:46;8.90;99.90
3492;DHT22;1760;52.480;13.422;2024-01-25T11:11:18;8.90;99.90
3492;DHT22;1760;52.480;13.422;2024-01-25T11:13:55;8.90;99.90
3492;DHT22;1760;52.480;13.422;2024-01-25T11:16:28;8.90;99.90
3492;DHT22;1760;52.480;13.422;2024-01-25T11:18:56;8.90;99.90
3492;DHT22;1760;52.480;13.422;2024-01-25T11:21:29;9.00;99.90
3492;DHT22;1760;52.480;13.422;2024-01-25T11:24:02;9.00;99.90
3492;DHT22;1760;52.480;13.422;2024-01-25T11:26:29;8.90;99.90
3492;DHT22;1760;52.480;13.422;2024-01-25T11:29:00;8.90;99.90
3492;DHT22;1760;52.480;13.422;2024-01-25T11:31:28;9.00;99.90
3492;DHT22;1760;52.480;13.422;2024-01-25T11:33:57;8.90;99.90
3492;DHT22;1760;52.480;13.422;2024-01-25T11:36:25;8.90;99.90
3492;DHT22;1760;52.480;13.422;2024-01-25T11:38:52;9.00;99.90
3492;DHT22;1760;52.480;13.422;2024-01-25T11:41:19;9.00;99.90
3492;DHT22;1760;52.480;13.422;2024-01-25T11:43:48;9.10;99.90
3492;DHT22;1760;52.480;13.422;2024-01-25T11:46:17;9.10;99.90
3492;DHT22;1760;52.480;13.422;2024-01-25T11:48:44;9.10;99.90
3492;DHT22;1760;52.480;13.422;2024-01-25T11:51:12;9.20;99.90
3492;DHT22;1760;52.480;13.422;2024-01-25T11:53:39;9.10;99.90
3492;DHT22;1760;52.480;13.422;2024-01-25T11:56:08;9.10;99.90
3492;DHT22;1760;52.480;13.422;2024-01-25T11:58:38;9.30;99.90
3492;DHT22;1760;52.480;13.422;2024-01-25T12:01:08;9.30;99.90
3492;DHT22;1760;52.480;13.422;2024-01-25T12:03:38;9.30;99.90
3492;DHT22;1760;52.480;13.422;2024-01-25T12:06:05;9.20;99.90
3492;DHT22;1760;52.480;13.422;2024-01-25T12:08:35;9.20;99.90
3492;DHT22;1760;52.480;13.422;2024-01-25T12:11:07;9.30;99.90
3492;DHT22;1760;52.480;13.422;2024-01-25T12:13:39;9.40;99.90
3492;DHT22;1760;52.480;13.422;2024-01-25T12:16:07;9.40;99.90
3492;DHT22;1760;52.480;13.422;2024-01-25T12:18:37;9.40;99.90
3492;DHT22;1760;52.480;13.422;2024-01-25T12:21:05;9.40;99.90
3492;DHT22;1760;52.480;13.422;2024-01-25T12:23:37;9.40;99.90
3492;DHT22;1760;52.480;13.422;2024-01-25T12:26:05;9.40;99.90
3492;DHT22;1760;52.480;13.422;2024-01-25T12:28:32;9.20;99.90
3492;DHT22;1760;52.480;13.422;2024-01-25T12:30:59;9.20;99.90
3492;DHT22;1760;52.480;13.422;2024-01-25T12:33:27;9.10;99.90
3492;DHT22;1760;52.480;13.422;2024-01-25T12:35:55;9.10;99.90
3492;DHT22;1760;52.480;13.422;2024-01-25T12:38:24;9.20;99.90
3492;DHT22;1760;52.480;13.422;2024-01-25T12:40:55;9.30;99.90
3492;DHT22;1760;52.480;13.422;2024-01-25T12:43:30;9.30;99.90
3492;DHT22;1760;52.480;13.422;2024-01-25T12:45:57;9.20;99.90
3492;DHT22;1760;52.480;13.422;2024-01-25T12:48:23;9.10;99.90
3492;DHT22;1760;52.480;13.422;2024-01-25T12:50:50;9.00;99.90
3492;DHT22;1760;52.480;13.422;2024-01-25T12:53:23;9.00;99.90
3492;DHT22;1760;52.480;13.422;2024-01-25T12:55:50;9.10;99.90
3492;DHT22;1760;52.480;13.422;2024-01-25T12:58:17;9.20;99.90
3492;DHT22;1760;52.480;13.422;2024-01-25T13:00:45;9.20;99.90
3492;DHT22;1760;52.480;13.422;2024-01-25T13:03:15;9.20;99.90
3492;DHT22;1760;52.480;13.422;2024-01-25T13:05:42;9.30;99.90
3492;DHT22;1760;52.480;13.422;2024-01-25T13:08:09;9.20;99.90
3492;DHT22;1760;52.480;13.422;2024-01-25T13:10:37;9.20;99.90
3492;DHT22;1760;52.480;13.422;2024-01-25T13:13:05;9.20;99.90
3492;DHT22;1760;52.480;13.422;2024-01-25T13:15:32;9.20;99.90
3492;DHT22;1760;52.480;13.422;2024-01-25T13:17:59;9.10;99.90
3492;DHT22;1760;52.480;13.422;2024-01-25T13:20:26;9.10;99.90
3492;DHT22;1760;52.480;13.422;2024-01-25T13:22:53;9.10;99.90
3492;DHT22;1760;52.480;13.422;2024-01-25T13:25:20;9.20;99.90
3492;DHT22;1760;52.480;13.422;2024-01-25T13:27:48;9.30;99.90
3492;DHT22;1760;52.480;13.422;2024-01-25T13:30:15;9.30;99.90
3492;DHT22;1760;52.480;13.422;2024-01-25T13:32:43;9.30;99.90
3492;DHT22;1760;52.480;13.422;2024-01-25T13:35:10;9.20;99.90
3492;DHT22;1760;52.480;13.422;2024-01-25T13:37:37;9.20;99.90
3492;DHT22;1760;52.480;13.422;2024-01-25T13:40:05;9.30;99.90
3492;DHT22;1760;52.480;13.422;2024-01-25T13:42:32;9.30;99.90
3492;DHT22;1760;52.480;13.422;2024-01-25T13:45:01;9.30;99.90
3492;DHT22;1760;52.480;13.422;2024-01-25T13:47:28;9.30;99.90
3492;DHT22;1760;52.480;13.422;2024-01-25T13:49:55;9.30;99.90
3492;DHT22;1760;52.480;13.422;2024-01-25T13:52:24;9.30;99.90
3492;DHT22;1760;52.480;13.422;2024-01-25T13:54:51;9.30;99.90
3492;DHT22;1760;52.480;13.422;2024-01-25T13:57:18;9.30;99.90
3492;DHT22;1760;52.480;13.422;2024-01-25T13:59:49;9.20;99.90
3492;DHT22;1760;52.480;13.422;2024-01-25T14:02:20;9.10;99.90
3492;DHT22;1760;52.480;13.422;2024-01-25T14:04:47;9.10;99.90
3492;DHT22;1760;52.480;13.422;2024-01-25T14:07:15;9.00;99.90
3492;DHT22;1760;52.480;13.422;2024-01-25T14:09:43;9.00;99.90
3492;DHT22;1760;52.480;13.422;2024-01-25T14:12:10;9.00;99.90
3492;DHT22;1760;52.480;13.422;2024-01-25T14:14:37;8.90;99.90
3492;DHT22;1760;52.480;13.422;2024-01-25T14:17:07;8.90;99.90
3492;DHT22;1760;52.480;13.422;2024-01-25T14:19:35;8.90;99.90
3492;DHT22;1760;52.480;13.422;2024-01-25T14:22:02;8.90;99.90
3492;DHT22;1760;52.480;13.422;2024-01-25T14:24:29;8.90;99.90
3492;DHT22;1760;52.480;13.422;2024-01-25T14:26:56;9.00;99.90
3492;DHT22;1760;52.480;13.422;2024-01-25T14:29:25;9.00;99.90
3492;DHT22;1760;52.480;13.422;2024-01-25T14:31:55;9.00;99.90
3492;DHT22;1760;52.480;13.422;2024-01-25T14:34:25;8.90;99.90
3492;DHT22;1760;52.480;13.422;2024-01-25T14:36:57;9.00;99.90
3492;DHT22;1760;52.480;13.422;2024-01-25T14:39:26;8.90;99.90
3492;DHT22;1760;52.480;13.422;2024-01-25T14:41:53;9.00;99.90
3492;DHT22;1760;52.480;13.422;2024-01-25T14:44:20;9.00;99.90
3492;DHT22;1760;52.480;13.422;2024-01-25T14:46:47;8.90;99.90
3492;DHT22;1760;52.480;13.422;2024-01-25T14:49:14;9.00;99.90
3492;DHT22;1760;52.480;13.422;2024-01-25T14:51:41;8.90;99.90
3492;DHT22;1760;52.480;13.422;2024-01-25T14:54:09;8.90;99.90
3492;DHT22;1760;52.480;13.422;2024-01-25T14:56:37;8.90;99.90
3492;DHT22;1760;52.480;13.422;2024-01-25T14:59:07;8.80;99.90
3492;DHT22;1760;52.480;13.422;2024-01-25T15:01:35;8.80;99.90
3492;DHT22;1760;52.480;13.422;2024-01-25T15:04:02;8.70;99.90
3492;DHT22;1760;52.480;13.422;2024-01-25T15:06:30;8.80;99.90
3492;DHT22;1760;52.480;13.422;2024-01-25T15:08:57;8.70;99.90
3492;DHT22;1760;52.480;13.422;2024-01-25T15:11:27;8.70;99.90
3492;DHT22;1760;52.480;13.422;2024-01-25T15:13:54;8.70;99.90
3492;DHT22;1760;52.480;13.422;2024-01-25T15:16:22;8.70;99.90
3492;DHT22;1760;52.480;13.422;2024-01-25T15:18:49;8.70;99.90
3492;DHT22;1760;52.480;13.422;2024-01-25T15:21:16;8.70;99.90
3492;DHT22;1760;52.480;13.422;2024-01-25T15:23:43;8.70;99.90
3492;DHT22;1760;52.480;13.422;2024-01-25T15:26:13;8.70;99.90
3492;DHT22;1760;52.480;13.422;2024-01-25T15:28:41;8.70;99.90
3492;DHT22;1760;52.480;13.422;2024-01-25T15:31:10;8.70;99.90
3492;DHT22;1760;52.480;13.422;2024-01-25T15:33:37;8.70;99.90
3492;DHT22;1760;52.480;13.422;2024-01-25T15:36:05;8.70;99.90
3492;DHT22;1760;52.480;13.422;2024-01-25T15:38:32;8.60;99.90
3492;DHT22;1760;52.480;13.422;2024-01-25T15:40:59;8.60;99.90
3492;DHT22;1760;52.480;13.422;2024-01-25T15:43:26;8.60;99.90
3492;DHT22;1760;52.480;13.422;2024-01-25T15:45:55;8.60;99.90
3492;DHT22;1760;52.480;13.422;2024-01-25T15:48:22;8.60;99.90
3492;DHT22;1760;52.480;13.422;2024-01-25T15:50:49;8.60;99.90
3492;DHT22;1760;52.480;13.422;2024-01-25T15:53:16;8.60;99.90
3492;DHT22;1760;52.480;13.422;2024-01-25T15:55:43;8.60;99.90
3492;DHT22;1760;52.480;13.422;2024-01-25T15:58:10;8.60;99.90
3492;DHT22;1760;52.480;13.422;2024-01-25T16:00:37;8.70;99.90
3492;DHT22;1760;52.480;13.422;2024-01-25T16:03:10;8.70;99.90
3492;DHT22;1760;52.480;13.422;2024-01-25T16:05:37;8.70;99.90
3492;DHT22;1760;52.480;13.422;2024-01-25T16:08:04;8.70;99.90
3492;DHT22;1760;52.480;13.422;2024-01-25T16:10:34;8.80;99.90
3492;DHT22;1760;52.480;13.422;2024-01-25T16:13:01;8.80;99.90
3492;DHT22;1760;52.480;13.422;2024-01-25T16:15:27;8.70;99.90
3492;DHT22;1760;52.480;13.422;2024-01-25T16:17:54;8.70;99.90
3492;DHT22;1760;52.480;13.422;2024-01-25T16:20:23;8.70;99.90